createdAt,value
2024-04-18T00:00:39.974Z,3.95
2024-04-18T00:03:42.481Z,6.20
2024-04-18T00:06:45.032Z,4.00
2024-04-18T00:09:47.484Z,3.92
2024-04-18T00:12:50.085Z,3.88
2024-04-18T00:15:52.510Z,5.00
2024-04-18T00:18:55.799Z,4.53
2024-04-18T00:21:59.197Z,4.07
2024-04-18T00:25:04.833Z,3.80
2024-04-18T00:28:07.173Z,5.10
2024-04-18T00:31:10.329Z,4.33
2024-04-18T00:34:13.727Z,3.78
2024-04-18T00:37:16.338Z,4.32
2024-04-18T00:40:18.631Z,3.63
2024-04-18T00:43:21.957Z,3.47
2024-04-18T00:46:27.876Z,3.50
2024-04-18T00:49:30.481Z,3.88
2024-04-18T00:52:33.213Z,4.32
2024-04-18T00:55:38.107Z,3.65
2024-04-18T00:58:42.373Z,3.60
2024-04-18T01:01:49.089Z,4.03
2024-04-18T01:04:51.651Z,4.50
2024-04-18T01:07:54.036Z,5.82
2024-04-18T01:10:56.288Z,4.70
2024-04-18T01:13:58.545Z,5.18
2024-04-18T01:17:06.191Z,3.78
2024-04-18T01:20:09.448Z,3.70
2024-04-18T01:23:11.727Z,5.68
2024-04-18T01:26:14.241Z,3.80
2024-04-18T01:29:16.511Z,3.35
2024-04-18T01:32:18.798Z,3.97
2024-04-18T01:35:21.121Z,4.40
2024-04-18T01:38:23.397Z,4.20
2024-04-18T01:41:25.859Z,4.85
2024-04-18T01:44:28.125Z,4.25
2024-04-18T01:47:30.532Z,3.80
2024-04-18T01:50:32.812Z,4.90
2024-04-18T01:53:35.214Z,4.00
2024-04-18T01:56:37.519Z,5.35
2024-04-18T01:59:42.527Z,6.30
2024-04-18T02:02:44.769Z,4.03
2024-04-18T02:05:47.767Z,3.80
2024-04-18T02:08:50.233Z,4.28
2024-04-18T02:11:52.909Z,4.35
2024-04-18T02:14:55.249Z,4.13
2024-04-18T02:17:57.535Z,4.00
2024-04-18T02:20:59.808Z,4.13
2024-04-18T02:24:02.195Z,4.32
2024-04-18T02:27:04.566Z,3.45
2024-04-18T02:30:08.429Z,4.38
2024-04-18T02:33:11.289Z,3.58
2024-04-18T02:36:13.642Z,2.95
2024-04-18T02:39:15.979Z,2.97
2024-04-18T02:42:18.372Z,3.60
2024-04-18T02:45:21.048Z,3.50
2024-04-18T02:48:23.456Z,2.95
2024-04-18T02:51:25.842Z,3.78
2024-04-18T02:54:28.413Z,2.83
2024-04-18T02:57:30.731Z,3.95
2024-04-18T03:00:36.288Z,3.03
2024-04-18T03:03:38.697Z,3.85
2024-04-18T03:06:41.002Z,3.53
2024-04-18T03:09:43.375Z,3.47
2024-04-18T03:12:45.761Z,3.45
2024-04-18T03:15:48.394Z,3.85
2024-04-18T03:18:50.853Z,3.78
2024-04-18T03:21:54.244Z,3.53
2024-04-18T03:24:56.622Z,3.63
2024-04-18T03:27:58.861Z,4.22
2024-04-18T03:31:04.776Z,3.15
2024-04-18T03:34:07.123Z,3.75
2024-04-18T03:37:09.536Z,2.92
2024-04-18T03:40:11.821Z,2.90
2024-04-18T03:43:15.150Z,3.27
2024-04-18T03:46:17.427Z,2.50
2024-04-18T03:49:19.843Z,3.42
2024-04-18T03:52:22.194Z,2.75
2024-04-18T03:55:24.574Z,3.22
2024-04-18T03:58:26.889Z,4.55
2024-04-18T04:01:31.153Z,2.60
2024-04-18T04:04:34.891Z,2.60
2024-04-18T04:07:37.186Z,1.88
2024-04-18T04:10:43.904Z,3.33
2024-04-18T04:13:46.404Z,2.45
2024-04-18T04:16:52.683Z,2.10
2024-04-18T04:19:54.898Z,2.40
2024-04-18T04:22:57.790Z,2.53
2024-04-18T04:26:00.385Z,1.30
2024-04-18T04:29:02.747Z,1.92
2024-04-18T04:32:05.269Z,1.77
2024-04-18T04:35:07.699Z,2.72
2024-04-18T04:38:09.997Z,1.70
2024-04-18T04:41:12.473Z,2.08
2024-04-18T04:44:14.732Z,2.50
2024-04-18T04:47:16.982Z,1.95
2024-04-18T04:50:19.496Z,1.67
2024-04-18T04:53:21.788Z,1.38
2024-04-18T04:56:24.109Z,2.20
2024-04-18T04:59:26.434Z,1.90
2024-04-18T05:02:28.798Z,1.70
2024-04-18T05:05:31.103Z,1.55
2024-04-18T05:08:33.388Z,1.25
2024-04-18T05:11:36.191Z,1.58
2024-04-18T05:14:38.691Z,1.88
2024-04-18T05:17:40.979Z,1.70
2024-04-18T05:20:43.390Z,1.90
2024-04-18T05:23:45.797Z,1.85
2024-04-18T05:26:48.110Z,1.27
2024-04-18T05:30:09.167Z,2.83
2024-04-18T05:33:11.484Z,2.15
2024-04-18T05:36:13.768Z,1.77
2024-04-18T05:39:16.076Z,2.20
2024-04-18T05:42:19.904Z,1.88
2024-04-18T05:45:22.261Z,2.13
2024-04-18T05:48:24.823Z,2.55
2024-04-18T05:51:28.836Z,2.20
2024-04-18T05:54:31.730Z,1.23
2024-04-18T05:57:34.299Z,2.15
2024-04-18T06:00:37.112Z,1.80
2024-04-18T06:03:45.113Z,2.13
2024-04-18T06:06:47.875Z,2.47
2024-04-18T06:09:50.304Z,2.03
2024-04-18T06:12:52.732Z,1.85
2024-04-18T06:15:55.493Z,1.75
2024-04-18T06:18:58.857Z,1.85
2024-04-18T06:22:02.208Z,2.53
2024-04-18T06:25:04.867Z,2.30
2024-04-18T06:28:13.331Z,1.77
2024-04-18T06:31:18.297Z,2.65
2024-04-18T06:34:24.061Z,1.70
2024-04-18T06:37:27.461Z,1.60
2024-04-18T06:40:29.713Z,2.15
2024-04-18T06:43:32.041Z,2.35
2024-04-18T06:46:52.723Z,1.40
2024-04-18T06:50:02.741Z,1.98
2024-04-18T06:53:08.237Z,1.17
2024-04-18T06:56:12.820Z,1.55
2024-04-18T06:59:17.394Z,1.65
2024-04-18T07:02:19.861Z,2.73
2024-04-18T07:05:25.932Z,1.50
2024-04-18T07:08:28.469Z,2.30
2024-04-18T07:11:30.857Z,1.90
2024-04-18T07:14:33.099Z,1.45
2024-04-18T07:17:35.470Z,1.27
2024-04-18T07:20:37.934Z,1.30
2024-04-18T07:23:40.216Z,1.83
2024-04-18T07:26:43.927Z,1.60
2024-04-18T07:29:46.352Z,1.63
2024-04-18T07:32:49.077Z,2.67
2024-04-18T07:36:00.097Z,2.60
2024-04-18T07:39:03.763Z,1.92
2024-04-18T07:42:08.180Z,1.42
2024-04-18T07:45:10.765Z,1.50
2024-04-18T07:48:13.745Z,1.80
2024-04-18T07:51:16.333Z,1.80
2024-04-18T07:54:21.709Z,1.75
2024-04-18T07:57:25.974Z,1.90
2024-04-18T08:00:29.807Z,2.33
2024-04-18T08:03:36.216Z,2.25
2024-04-18T08:06:43.883Z,1.60
2024-04-18T08:09:51.044Z,2.45
2024-04-18T08:13:00.190Z,1.90
2024-04-18T08:16:05.478Z,1.92
2024-04-18T08:19:08.167Z,1.95
2024-04-18T08:22:10.615Z,2.15
2024-04-18T08:25:13.485Z,1.67
2024-04-18T08:28:17.753Z,1.42
2024-04-18T08:31:21.006Z,3.90
2024-04-18T08:34:26.828Z,1.92
2024-04-18T08:37:30.115Z,1.40
2024-04-18T08:40:32.955Z,3.05
2024-04-18T08:43:35.436Z,2.08
2024-04-18T08:46:38.720Z,1.80
2024-04-18T08:52:45.652Z,3.13
2024-04-18T08:55:51.846Z,2.90
2024-04-18T08:58:54.287Z,2.67
2024-04-18T09:01:57.151Z,2.87
2024-04-18T09:05:00.324Z,2.85
2024-04-18T09:08:02.733Z,2.47
2024-04-18T09:11:05.761Z,2.58
2024-04-18T09:14:08.200Z,3.17
2024-04-18T09:17:15.082Z,2.35
2024-04-18T09:20:17.837Z,2.75
2024-04-18T09:23:20.167Z,3.45
2024-04-18T09:26:22.417Z,3.03
2024-04-18T09:29:24.759Z,3.17
2024-04-18T09:32:27.651Z,3.10
2024-04-18T09:35:33.361Z,3.88
2024-04-18T09:38:40.630Z,3.92
2024-04-18T09:41:50.159Z,4.38
2024-04-18T09:44:55.532Z,4.85
2024-04-18T09:47:58.839Z,6.50
2024-04-18T09:54:05.396Z,7.18
2024-04-18T09:57:08.741Z,8.52
2024-04-18T10:00:13.542Z,6.93
2024-04-18T10:03:17.834Z,7.72
2024-04-18T10:06:24.263Z,6.90
2024-04-18T10:09:28.619Z,8.52
2024-04-18T10:12:35.936Z,7.72
2024-04-18T10:15:38.595Z,6.95
2024-04-18T10:18:42.284Z,8.43
2024-04-18T10:22:11.639Z,10.68
2024-04-18T10:25:24.683Z,14.30
2024-04-18T10:28:33.700Z,15.25
2024-04-18T10:31:39.661Z,15.82
2024-04-18T10:34:42.822Z,15.85
2024-04-18T10:37:52.160Z,17.92
2024-04-18T10:41:18.807Z,19.15
2024-04-18T10:44:26.370Z,17.70
2024-04-18T10:47:29.590Z,18.20
2024-04-18T10:50:39.520Z,22.70
2024-04-18T10:53:41.834Z,19.70
2024-04-18T10:56:44.351Z,20.85
2024-04-18T10:59:49.140Z,19.83
2024-04-18T11:02:56.368Z,22.23
2024-04-18T11:06:01.464Z,18.85
2024-04-18T11:09:04.026Z,21.75
2024-04-18T11:12:08.050Z,19.95
2024-04-18T11:15:10.601Z,17.73
2024-04-18T11:18:13.356Z,19.45
2024-04-18T11:21:16.338Z,20.27
2024-04-18T11:24:19.098Z,20.92
2024-04-18T11:27:26.798Z,19.87
2024-04-18T11:30:31.732Z,19.00
2024-04-18T11:33:35.367Z,19.17
2024-04-18T11:36:39.919Z,20.42
2024-04-18T11:39:45.890Z,18.10
2024-04-18T11:42:48.864Z,21.60
2024-04-18T11:45:51.624Z,22.27
2024-04-18T11:48:56.385Z,21.95
2024-04-18T11:51:58.898Z,23.30
2024-04-18T11:55:01.684Z,22.02
2024-04-18T11:58:07.143Z,20.23
2024-04-18T12:01:11.412Z,20.98
2024-04-18T12:04:13.988Z,19.23
2024-04-18T12:07:16.486Z,21.55
2024-04-18T12:10:19.527Z,19.83
2024-04-18T12:13:21.984Z,17.52
2024-04-18T12:16:26.209Z,19.92
2024-04-18T12:19:28.609Z,16.15
2024-04-18T12:22:31.064Z,16.15
2024-04-18T12:25:34.149Z,16.00
2024-04-18T12:28:47.699Z,15.15
2024-04-18T12:31:50.146Z,15.82
2024-04-18T12:34:52.660Z,14.02
2024-04-18T12:37:55.769Z,15.05
2024-04-18T12:44:06.479Z,16.10
2024-04-18T12:47:08.969Z,14.85
2024-04-18T12:50:11.451Z,14.80
2024-04-18T12:53:13.974Z,15.43
2024-04-18T12:56:16.576Z,13.40
2024-04-18T12:59:19.034Z,14.43
2024-04-18T13:02:22.004Z,15.13
2024-04-18T13:08:28.471Z,14.10
2024-04-18T13:11:30.846Z,15.40
2024-04-18T13:14:33.180Z,14.52
2024-04-18T13:17:35.509Z,15.93
2024-04-18T13:20:38.270Z,13.82
2024-04-18T13:23:40.561Z,13.75
2024-04-18T13:26:43.039Z,12.57
2024-04-18T13:29:45.371Z,12.10
2024-04-18T13:32:47.924Z,12.82
2024-04-18T13:35:50.634Z,14.23
2024-04-18T13:38:53.421Z,12.02
2024-04-18T13:41:55.834Z,11.38
2024-04-18T13:44:58.608Z,10.43
2024-04-18T13:48:02.211Z,11.35
2024-04-18T13:51:05.011Z,11.90
2024-04-18T13:54:08.504Z,11.18
2024-04-18T13:57:11.235Z,12.27
2024-04-18T14:00:14.070Z,11.25
2024-04-18T14:03:20.036Z,11.02
2024-04-18T14:06:23.574Z,9.85
2024-04-18T14:09:35.518Z,18.90
2024-04-18T14:12:42.808Z,8.10
2024-04-18T14:16:05.206Z,9.32
2024-04-18T14:19:07.484Z,7.80
2024-04-18T14:22:10.240Z,8.63
2024-04-18T14:25:12.602Z,8.07
2024-04-18T14:28:23.897Z,8.52
2024-04-18T14:31:33.690Z,7.75
2024-04-18T14:34:36.144Z,7.53
2024-04-18T14:37:38.698Z,7.50
2024-04-18T14:40:53.038Z,7.55
2024-04-18T14:44:01.197Z,8.38
2024-04-18T14:47:03.907Z,13.50
2024-04-18T14:50:09.537Z,27.67
2024-04-18T14:53:14.955Z,17.38
2024-04-18T14:56:18.188Z,15.25
2024-04-18T14:59:20.736Z,10.43
2024-04-18T15:02:23.148Z,10.65
2024-04-18T15:05:26.748Z,10.38
2024-04-18T15:08:29.159Z,8.68
2024-04-18T15:11:33.150Z,8.57
2024-04-18T15:14:35.605Z,8.82
2024-04-18T15:17:37.952Z,8.52
2024-04-18T15:20:40.926Z,8.95
2024-04-18T15:23:44.017Z,8.60
2024-04-18T15:26:46.476Z,6.95
2024-04-18T15:29:48.714Z,9.40
2024-04-18T15:32:51.606Z,7.88
2024-04-18T15:35:54.152Z,9.32
2024-04-18T15:38:56.600Z,8.75
2024-04-18T15:41:58.950Z,9.05
2024-04-18T15:45:02.261Z,8.65
2024-04-18T15:48:04.847Z,10.60
2024-04-18T15:51:09.342Z,8.05
2024-04-18T15:54:12.092Z,8.32
2024-04-18T15:57:14.677Z,9.30
2024-04-18T16:00:18.355Z,9.13
2024-04-18T16:03:20.817Z,8.13
2024-04-18T16:06:23.335Z,8.68
2024-04-18T16:09:25.887Z,8.38
2024-04-18T16:12:30.469Z,9.60
2024-04-18T16:15:33.131Z,7.53
2024-04-18T16:18:35.585Z,9.02
2024-04-18T16:21:37.911Z,8.85
2024-04-18T16:24:40.770Z,10.43
2024-04-18T16:27:43.296Z,9.10
2024-04-18T16:30:47.752Z,10.80
2024-04-18T16:33:50.290Z,7.20
2024-04-18T16:37:04.755Z,8.32
2024-04-18T16:40:14.580Z,9.38
2024-04-18T16:43:16.938Z,9.02
2024-04-18T16:46:19.367Z,8.07
2024-04-18T16:49:21.747Z,11.57
2024-04-18T16:52:24.113Z,8.57
2024-04-18T16:55:28.548Z,7.38
2024-04-18T16:58:32.210Z,8.63
2024-04-18T17:01:34.506Z,9.13
2024-04-18T17:04:36.906Z,10.23
2024-04-18T17:07:44.524Z,9.85
2024-04-18T17:10:46.801Z,9.25
2024-04-18T17:13:52.365Z,9.73
2024-04-18T17:16:55.946Z,8.30
2024-04-18T17:19:58.287Z,10.63
2024-04-18T17:23:00.859Z,9.98
2024-04-18T17:26:03.351Z,10.65
2024-04-18T17:29:05.643Z,9.75
2024-04-18T17:32:09.727Z,11.68
2024-04-18T17:35:12.394Z,10.32
2024-04-18T17:38:15.247Z,14.30
2024-04-18T17:41:17.888Z,8.95
2024-04-18T17:44:20.330Z,8.95
2024-04-18T17:47:22.741Z,8.90
2024-04-18T17:50:25.199Z,9.23
2024-04-18T17:53:27.480Z,8.95
2024-04-18T17:56:29.895Z,10.20
2024-04-18T17:59:32.162Z,7.60
2024-04-18T18:02:34.575Z,8.23
2024-04-18T18:05:36.975Z,8.95
2024-04-18T18:08:39.252Z,8.18
2024-04-18T18:11:41.569Z,8.85
2024-04-18T18:14:44.160Z,8.70
2024-04-18T18:17:46.700Z,9.27
2024-04-18T18:20:50.066Z,7.97
2024-04-18T18:23:52.302Z,8.25
2024-04-18T18:26:54.808Z,9.75
2024-04-18T18:29:57.092Z,8.77
2024-04-18T18:33:01.954Z,9.73
2024-04-18T18:36:04.578Z,7.97
2024-04-18T18:39:06.921Z,11.93
2024-04-18T18:42:09.342Z,9.68
2024-04-18T18:45:12.031Z,8.40
2024-04-18T18:48:14.500Z,8.57
2024-04-18T18:51:16.911Z,8.68
2024-04-18T18:54:19.299Z,9.05
2024-04-18T18:57:21.794Z,7.70
2024-04-18T19:00:29.043Z,7.18
2024-04-18T19:03:31.527Z,8.75
2024-04-18T19:06:33.951Z,9.68
2024-04-18T19:09:39.758Z,8.82
2024-04-18T19:12:42.112Z,6.63
2024-04-18T19:15:44.526Z,8.80
2024-04-18T19:18:51.206Z,10.32
2024-04-18T19:21:53.955Z,9.30
2024-04-18T19:24:56.204Z,7.72
2024-04-18T19:27:59.400Z,8.27
2024-04-18T19:31:01.815Z,9.25
2024-04-18T19:34:04.381Z,9.48
2024-04-18T19:37:07.685Z,8.88
2024-04-18T19:40:10.623Z,9.40
2024-04-18T19:43:13.014Z,9.68
2024-04-18T19:46:15.334Z,8.88
2024-04-18T19:49:17.826Z,9.60
2024-04-18T19:52:20.377Z,8.75
2024-04-18T19:55:22.640Z,12.25
2024-04-18T19:58:25.056Z,10.02
2024-04-18T20:01:28.052Z,10.50
2024-04-18T20:04:30.621Z,11.40
2024-04-18T20:07:33.832Z,12.10
2024-04-18T20:10:38.172Z,13.93
2024-04-18T20:13:40.613Z,13.93
2024-04-18T20:16:45.750Z,14.55
2024-04-18T20:19:49.933Z,13.73
2024-04-18T20:22:54.372Z,13.95
2024-04-18T20:25:56.653Z,11.48
2024-04-18T20:28:58.926Z,12.50
2024-04-18T20:32:01.260Z,14.52
2024-04-18T20:35:03.701Z,13.25
2024-04-18T20:38:05.982Z,13.82
2024-04-18T20:41:08.356Z,12.77
2024-04-18T20:44:11.339Z,9.50
2024-04-18T20:47:13.999Z,12.67
2024-04-18T20:50:17.209Z,10.95
2024-04-18T20:53:19.521Z,11.25
2024-04-18T20:56:21.964Z,12.30
2024-04-18T20:59:24.243Z,11.93
2024-04-18T21:02:28.106Z,10.40
2024-04-18T21:05:30.553Z,11.07
2024-04-18T21:08:34.305Z,10.20
2024-04-18T21:11:36.625Z,12.05
2024-04-18T21:14:39.186Z,10.32
2024-04-18T21:17:41.705Z,10.15
2024-04-18T21:20:44.047Z,11.25
2024-04-18T21:23:46.470Z,9.38
2024-04-18T21:26:49.387Z,10.93
2024-04-18T21:29:51.910Z,13.95
2024-04-18T21:32:55.228Z,11.30
2024-04-18T21:35:57.609Z,11.93
2024-04-18T21:39:00.868Z,13.13
2024-04-18T21:42:03.831Z,10.98
2024-04-18T21:45:06.662Z,12.70
2024-04-18T21:48:09.313Z,11.88
2024-04-18T21:51:11.770Z,11.13
2024-04-18T21:54:14.401Z,10.75
2024-04-18T21:57:16.775Z,11.68
2024-04-18T22:00:19.257Z,9.02
2024-04-18T22:03:21.872Z,10.77
2024-04-18T22:06:24.246Z,12.13
2024-04-18T22:09:26.574Z,11.57
2024-04-18T22:12:28.976Z,11.68
2024-04-18T22:15:31.355Z,11.30
2024-04-18T22:18:34.105Z,10.30
2024-04-18T22:21:38.165Z,11.55
2024-04-18T22:24:40.724Z,12.40
2024-04-18T22:27:45.670Z,11.60
2024-04-18T22:30:56.955Z,11.85
2024-04-18T22:34:01.774Z,9.48
2024-04-18T22:37:08.778Z,9.85
2024-04-18T22:40:11.932Z,11.73
2024-04-18T22:43:14.816Z,9.70
2024-04-18T22:46:17.412Z,11.07
2024-04-18T22:49:21.879Z,9.75
2024-04-18T22:52:25.653Z,10.43
2024-04-18T22:55:31.443Z,10.70
2024-04-18T22:58:34.017Z,10.32
2024-04-18T23:01:36.438Z,10.90
2024-04-18T23:04:38.990Z,12.20
2024-04-18T23:07:41.415Z,9.55
2024-04-18T23:10:45.996Z,9.85
2024-04-18T23:13:49.264Z,9.55
2024-04-18T23:16:51.596Z,10.90
2024-04-18T23:19:54.004Z,10.48
2024-04-18T23:22:57.611Z,11.43
2024-04-18T23:25:59.894Z,10.77
2024-04-18T23:29:02.240Z,11.05
2024-04-18T23:32:04.920Z,12.20
2024-04-18T23:35:08.250Z,11.18
2024-04-18T23:38:12.952Z,12.40
2024-04-18T23:41:15.541Z,13.23
2024-04-18T23:44:18.325Z,13.50
2024-04-18T23:47:20.615Z,12.93
2024-04-18T23:50:22.921Z,12.23
2024-04-18T23:53:25.161Z,12.45
2024-04-18T23:56:27.546Z,11.18
2024-04-18T23:59:29.816Z,9.63
